sensor_id;sensor_type;location;lat;lon;timestamp;P1;P2;P0
74434;PMS7003;62867;52.038;29.256;2023-02-28T00:01:55;21.6;17.8;10.2
74434;PMS7003;62867;52.038;29.256;2023-02-28T00:06:13;20.6;15.8;9.6
74434;PMS7003;62867;52.038;29.256;2023-02-28T00:11:25;22.2;17.8;11
74434;PMS7003;62867;52.038;29.256;2023-02-28T00:17:09;22.6;18.8;12
74434;PMS7003;62867;52.038;29.256;2023-02-28T00:21:25;26.6;21.6;12.2
74434;PMS7003;62867;52.038;29.256;2023-02-28T00:26:55;22;18.4;11.6
74434;PMS7003;62867;52.038;29.256;2023-02-28T00:31:13;21.6;18.8;10.4
74434;PMS7003;62867;52.038;29.256;2023-02-28T00:36:39;24.2;20.4;11.8
74434;PMS7003;62867;52.038;29.256;2023-02-28T00:41:55;25.8;19;11.3
74434;PMS7003;62867;52.038;29.256;2023-02-28T00:47:07;25.4;19.8;11.2
74434;PMS7003;62867;52.038;29.256;2023-02-28T00:51:55;28.4;21.2;12
74434;PMS7003;62867;52.038;29.256;2023-02-28T00:56:13;27;20.6;12.4
74434;PMS7003;62867;52.038;29.256;2023-02-28T01:01:55;25.2;19.8;12.6
74434;PMS7003;62867;52.038;29.256;2023-02-28T01:06:53;28.6;21.2;12.2
74434;PMS7003;62867;52.038;29.256;2023-02-28T01:12:09;28.4;22.4;12.2
74434;PMS7003;62867;52.038;29.256;2023-02-28T01:16:53;28;23.2;12.8
74434;PMS7003;62867;52.038;29.256;2023-02-28T01:21:14;27.4;21.4;13.2
74434;PMS7003;62867;52.038;29.256;2023-02-28T01:26:55;28.2;20.4;12.8
74434;PMS7003;62867;52.038;29.256;2023-02-28T01:31:37;25;21.6;12.6
74434;PMS7003;62867;52.038;29.256;2023-02-28T01:37:07;26.6;20.2;12
74434;PMS7003;62867;52.038;29.256;2023-02-28T01:41:53;27;19.5;12.3
74434;PMS7003;62867;52.038;29.256;2023-02-28T01:46:29;21.8;16.8;10.6
74434;PMS7003;62867;52.038;29.256;2023-02-28T01:51:55;25;18.4;9.6
74434;PMS7003;62867;52.038;29.256;2023-02-28T01:56:14;18.6;14.8;9
74434;PMS7003;62867;52.038;29.256;2023-02-28T02:02:07;19.8;14.6;8.4
74434;PMS7003;62867;52.038;29.256;2023-02-28T02:06:55;23.2;15.6;9
74434;PMS7003;62867;52.038;29.256;2023-02-28T02:11:39;22.8;17;9.6
74434;PMS7003;62867;52.038;29.256;2023-02-28T02:16:57;19.2;15.8;8.4
74434;PMS7003;62867;52.038;29.256;2023-02-28T02:23:46;14.8;12.2;7
74434;PMS7003;62867;52.038;29.256;2023-02-28T02:27:16;19.2;15.2;8.4
74434;PMS7003;62867;52.038;29.256;2023-02-28T02:31:59;18.8;14.8;8
74434;PMS7003;62867;52.038;29.256;2023-02-28T02:36:13;20.6;15;9
74434;PMS7003;62867;52.038;29.256;2023-02-28T02:41:53;19.3;16;9
74434;PMS7003;62867;52.038;29.256;2023-02-28T02:46:14;23.8;17.4;9.8
74434;PMS7003;62867;52.038;29.256;2023-02-28T02:52:11;29.2;22.6;12.6
74434;PMS7003;62867;52.038;29.256;2023-02-28T02:56:53;29;22.4;11.8
74434;PMS7003;62867;52.038;29.256;2023-02-28T03:01:14;27.6;22;13.4
74434;PMS7003;62867;52.038;29.256;2023-02-28T03:06:55;28.2;22.2;13.2
74434;PMS7003;62867;52.038;29.256;2023-02-28T03:11:39;28.6;21.2;12
74434;PMS7003;62867;52.038;29.256;2023-02-28T03:17:14;29.2;20;11.4
74434;PMS7003;62867;52.038;29.256;2023-02-28T03:21:58;24.8;19.4;11.4
74434;PMS7003;62867;52.038;29.256;2023-02-28T03:26:13;23.8;18.2;10
74434;PMS7003;62867;52.038;29.256;2023-02-28T03:31:57;27.2;21.2;11.6
74434;PMS7003;62867;52.038;29.256;2023-02-28T03:36:38;28.8;21.2;12.8
74434;PMS7003;62867;52.038;29.256;2023-02-28T03:42:09;30.8;23.8;13.8
74434;PMS7003;62867;52.038;29.256;2023-02-28T03:46:54;29.8;21;12
74434;PMS7003;62867;52.038;29.256;2023-02-28T03:51:25;20.2;18;9.6
74434;PMS7003;62867;52.038;29.256;2023-02-28T03:56:56;31.4;20.8;12.8
74434;PMS7003;62867;52.038;29.256;2023-02-28T04:01:26;34.2;25.8;14.8
74434;PMS7003;62867;52.038;29.256;2023-02-28T04:07:09;28.4;22.4;12.8
74434;PMS7003;62867;52.038;29.256;2023-02-28T04:11:55;36.4;28;15.4
74434;PMS7003;62867;52.038;29.256;2023-02-28T04:16:25;45.4;35;20
74434;PMS7003;62867;52.038;29.256;2023-02-28T04:21:55;35.4;28;15.4
74434;PMS7003;62867;52.038;29.256;2023-02-28T04:26:25;28;21.8;11.2
74434;PMS7003;62867;52.038;29.256;2023-02-28T04:32:09;34.8;28.6;16.4
74434;PMS7003;62867;52.038;29.256;2023-02-28T04:36:53;27.4;22.8;12.2
74434;PMS7003;62867;52.038;29.256;2023-02-28T04:41:13;21.2;17;9.6
74434;PMS7003;62867;52.038;29.256;2023-02-28T04:46:53;24;18;10.3
74434;PMS7003;62867;52.038;29.256;2023-02-28T04:51:51;23;18.8;11.4
74434;PMS7003;62867;52.038;29.256;2023-02-28T04:57:05;22.8;18;10.6
74434;PMS7003;62867;52.038;29.256;2023-02-28T05:01:53;22.2;18.4;10.4
74434;PMS7003;62867;52.038;29.256;2023-02-28T05:06:26;21.2;16.6;9.4
74434;PMS7003;62867;52.038;29.256;2023-02-28T05:11:53;22.2;16.2;9
74434;PMS7003;62867;52.038;29.256;2023-02-28T05:16:37;25.4;19.4;11.4
74434;PMS7003;62867;52.038;29.256;2023-02-28T05:22:11;28.6;23.2;12.8
74434;PMS7003;62867;52.038;29.256;2023-02-28T05:26:40;27.2;19.2;9.6
74434;PMS7003;62867;52.038;29.256;2023-02-28T05:31:13;26.8;19.4;10.8
74434;PMS7003;62867;52.038;29.256;2023-02-28T05:36:43;28;20.6;11
74434;PMS7003;62867;52.038;29.256;2023-02-28T05:41:13;25.4;19;10.4
74434;PMS7003;62867;52.038;29.256;2023-02-28T05:47:07;27.5;19.8;12.5
74434;PMS7003;62867;52.038;29.256;2023-02-28T05:51:23;27.2;19.6;11.6
74434;PMS7003;62867;52.038;29.256;2023-02-28T05:56:25;24.6;20.4;11.2
74434;PMS7003;62867;52.038;29.256;2023-02-28T06:01:53;32.6;23.6;12.2
74434;PMS7003;62867;52.038;29.256;2023-02-28T06:06:25;32;24.2;13.4
74434;PMS7003;62867;52.038;29.256;2023-02-28T06:11:37;31;24.4;13.6
74434;PMS7003;62867;52.038;29.256;2023-02-28T06:16:35;29.6;22.6;12.8
74434;PMS7003;62867;52.038;29.256;2023-02-28T06:21:13;56.2;40.6;21.4
74434;PMS7003;62867;52.038;29.256;2023-02-28T06:26:53;54.2;40.6;22.6
74434;PMS7003;62867;52.038;29.256;2023-02-28T06:31:37;44.4;32.2;17.2
74434;PMS7003;62867;52.038;29.256;2023-02-28T06:37:05;41;33.4;17.6
74434;PMS7003;62867;52.038;29.256;2023-02-28T06:41:37;40.2;30.8;16.8
74434;PMS7003;62867;52.038;29.256;2023-02-28T06:46:13;37;31;16.8
74434;PMS7003;62867;52.038;29.256;2023-02-28T06:51:40;38;30;17
74434;PMS7003;62867;52.038;29.256;2023-02-28T06:56:37;37.6;27.2;14.4
74434;PMS7003;62867;52.038;29.256;2023-02-28T07:02:07;31.6;25;14.8
74434;PMS7003;62867;52.038;29.256;2023-02-28T07:06:35;35.2;28;16.2
74434;PMS7003;62867;52.038;29.256;2023-02-28T07:11:26;43.2;34.2;19.8
74434;PMS7003;62867;52.038;29.256;2023-02-28T07:16:53;49.2;39;23.4
74434;PMS7003;62867;52.038;29.256;2023-02-28T07:21:37;45.4;33;19.4
74434;PMS7003;62867;52.038;29.256;2023-02-28T07:26:53;46.2;35.8;20.2
74434;PMS7003;62867;52.038;29.256;2023-02-28T07:31:25;47.8;36.6;20.4
74434;PMS7003;62867;52.038;29.256;2023-02-28T07:36:14;48.2;36.8;20.4
74434;PMS7003;62867;52.038;29.256;2023-02-28T07:41:53;43.8;36;20.4
74434;PMS7003;62867;52.038;29.256;2023-02-28T07:46:49;44.8;36.5;19.8
74434;PMS7003;62867;52.038;29.256;2023-02-28T07:52:07;40;33.4;19
74434;PMS7003;62867;52.038;29.256;2023-02-28T07:56:25;42;31.4;17.8
74434;PMS7003;62867;52.038;29.256;2023-02-28T08:01:23;44.8;33.8;19.6
74434;PMS7003;62867;52.038;29.256;2023-02-28T08:06:53;46.6;34.6;19.6
74434;PMS7003;62867;52.038;29.256;2023-02-28T08:11:35;43.2;34.6;19.2
74434;PMS7003;62867;52.038;29.256;2023-02-28T08:17:03;43.2;33.8;19.6
74434;PMS7003;62867;52.038;29.256;2023-02-28T08:21:37;46.4;32.8;19.2
74434;PMS7003;62867;52.038;29.256;2023-02-28T08:26:13;41;30.2;16.2
74434;PMS7003;62867;52.038;29.256;2023-02-28T08:31:51;43;33.8;18.8
74434;PMS7003;62867;52.038;29.256;2023-02-28T08:36:13;46.4;36.8;21
74434;PMS7003;62867;52.038;29.256;2023-02-28T08:42:05;54;39.6;21.4
74434;PMS7003;62867;52.038;29.256;2023-02-28T08:46:23;53.5;41;22
74434;PMS7003;62867;52.038;29.256;2023-02-28T08:51:25;45.6;35.2;19.8
74434;PMS7003;62867;52.038;29.256;2023-02-28T08:56:37;45.2;35;19.4
74434;PMS7003;62867;52.038;29.256;2023-02-28T09:01:14;51.6;34.8;19.6
74434;PMS7003;62867;52.038;29.256;2023-02-28T09:07:05;45.8;35.2;20
74434;PMS7003;62867;52.038;29.256;2023-02-28T09:11:13;49.8;36.2;20.2
74434;PMS7003;62867;52.038;29.256;2023-02-28T09:16:35;52.6;33.6;19.8
74434;PMS7003;62867;52.038;29.256;2023-02-28T09:21:51;49.2;37.8;21
74434;PMS7003;62867;52.038;29.256;2023-02-28T09:26:26;49.8;36.4;20.2
74434;PMS7003;62867;52.038;29.256;2023-02-28T09:32:05;48.6;34.2;18.4
74434;PMS7003;62867;52.038;29.256;2023-02-28T09:36:13;46.2;34;19.6
74434;PMS7003;62867;52.038;29.256;2023-02-28T09:41:25;44.4;33.2;18.2
74434;PMS7003;62867;52.038;29.256;2023-02-28T09:46:18;44.8;32.6;17.8
74434;PMS7003;62867;52.038;29.256;2023-02-28T09:51:27;38.8;30.3;16
74434;PMS7003;62867;52.038;29.256;2023-02-28T09:57:06;36.6;26.6;14.8
74434;PMS7003;62867;52.038;29.256;2023-02-28T10:01:39;41.4;30.4;16.4
74434;PMS7003;62867;52.038;29.256;2023-02-28T10:06:14;40.2;30.6;15
74434;PMS7003;62867;52.038;29.256;2023-02-28T10:11:54;35.2;26.4;14.2
74434;PMS7003;62867;52.038;29.256;2023-02-28T10:16:38;32;24.8;13.2
74434;PMS7003;62867;52.038;29.256;2023-02-28T10:22:08;27.8;21.4;11.6
74434;PMS7003;62867;52.038;29.256;2023-02-28T10:26:35;27.6;19.6;11.2
74434;PMS7003;62867;52.038;29.256;2023-02-28T10:31:25;26;18.2;10.6
74434;PMS7003;62867;52.038;29.256;2023-02-28T10:36:51;40.6;31.4;16.8
74434;PMS7003;62867;52.038;29.256;2023-02-28T10:41:14;55;38.6;21
74434;PMS7003;62867;52.038;29.256;2023-02-28T10:47:05;50.8;37.8;20.2
74434;PMS7003;62867;52.038;29.256;2023-02-28T10:51:36;40;31;16.3
74434;PMS7003;62867;52.038;29.256;2023-02-28T10:57:05;34;24.8;14.6
74434;PMS7003;62867;52.038;29.256;2023-02-28T11:01:51;42.4;32.4;17.6
74434;PMS7003;62867;52.038;29.256;2023-02-28T11:06:24;37.6;28.2;17.4
74434;PMS7003;62867;52.038;29.256;2023-02-28T11:12:04;39.8;29.8;17.6
74434;PMS7003;62867;52.038;29.256;2023-02-28T11:16:36;49;34.8;19.6
74434;PMS7003;62867;52.038;29.256;2023-02-28T11:21:36;53;36.4;20.8
74434;PMS7003;62867;52.038;29.256;2023-02-28T11:26:49;54.4;39.8;21.4
74434;PMS7003;62867;52.038;29.256;2023-02-28T11:31:15;29.4;24.2;13.8
74434;PMS7003;62867;52.038;29.256;2023-02-28T11:37:09;29.6;22.6;11.6
74434;PMS7003;62867;52.038;29.256;2023-02-28T11:41:53;26.6;21;11.4
74434;PMS7003;62867;52.038;29.256;2023-02-28T11:46:54;26.4;20.2;13.2
74434;PMS7003;62867;52.038;29.256;2023-02-28T11:51:52;29;24.3;13.5
74434;PMS7003;62867;52.038;29.256;2023-02-28T11:56:14;23.4;18;10.6
74434;PMS7003;62867;52.038;29.256;2023-02-28T12:02:10;25.8;19.6;11
74434;PMS7003;62867;52.038;29.256;2023-02-28T12:06:33;26.2;20.2;11.4
74434;PMS7003;62867;52.038;29.256;2023-02-28T12:11:40;24.6;18.8;11
74434;PMS7003;62867;52.038;29.256;2023-02-28T12:16:56;21.2;17;9.2
74434;PMS7003;62867;52.038;29.256;2023-02-28T12:21:15;24;19;10.8
74434;PMS7003;62867;52.038;29.256;2023-02-28T12:27:05;27.4;21.4;11.4
74434;PMS7003;62867;52.038;29.256;2023-02-28T12:31:38;23.2;18.8;10.2
74434;PMS7003;62867;52.038;29.256;2023-02-28T12:36:14;29.4;21.6;12.4
74434;PMS7003;62867;52.038;29.256;2023-02-28T12:41:54;25.2;20;11.4
74434;PMS7003;62867;52.038;29.256;2023-02-28T12:46:14;21.6;17.4;9.6
74434;PMS7003;62867;52.038;29.256;2023-02-28T12:51:41;27.3;21.3;11.8
74434;PMS7003;62867;52.038;29.256;2023-02-28T12:56:15;26;20.8;11.4
74434;PMS7003;62867;52.038;29.256;2023-02-28T13:01:58;38.4;27.6;15.4
74434;PMS7003;62867;52.038;29.256;2023-02-28T13:07:12;32.2;24;12.8
74434;PMS7003;62867;52.038;29.256;2023-02-28T13:11:40;29.4;23;13
74434;PMS7003;62867;52.038;29.256;2023-02-28T13:16:55;28.6;22.4;11.6
74434;PMS7003;62867;52.038;29.256;2023-02-28T13:21:41;28.2;21.4;11.8
74434;PMS7003;62867;52.038;29.256;2023-02-28T13:27:17;27;19.6;9.8
74434;PMS7003;62867;52.038;29.256;2023-02-28T13:32:39;27;19.4;10.2
74434;PMS7003;62867;52.038;29.256;2023-02-28T13:36:28;26;19;10.2
74434;PMS7003;62867;52.038;29.256;2023-02-28T13:41:55;24.8;17.8;8.6
74434;PMS7003;62867;52.038;29.256;2023-02-28T13:52:02;26.5;20.8;12
74434;PMS7003;62867;52.038;29.256;2023-02-28T13:57:06;26.6;19.2;11.2
74434;PMS7003;62867;52.038;29.256;2023-02-28T14:01:31;22.2;15;8.2
74434;PMS7003;62867;52.038;29.256;2023-02-28T14:06:55;18.4;13.4;8
74434;PMS7003;62867;52.038;29.256;2023-02-28T14:11:43;21;14.6;8.4
74434;PMS7003;62867;52.038;29.256;2023-02-28T14:16:55;24.8;16.6;10
74434;PMS7003;62867;52.038;29.256;2023-02-28T14:21:43;24.2;16;8.8
74434;PMS7003;62867;52.038;29.256;2023-02-28T14:26:17;22.2;17;9.2
74434;PMS7003;62867;52.038;29.256;2023-02-28T14:31:54;23.2;19.4;10.8
74434;PMS7003;62867;52.038;29.256;2023-02-28T14:36:38;23.8;19.8;10.8
74434;PMS7003;62867;52.038;29.256;2023-02-28T14:41:53;23;18;10
74434;PMS7003;62867;52.038;29.256;2023-02-28T14:47:11;22.6;16.4;9.4
74434;PMS7003;62867;52.038;29.256;2023-02-28T14:51:25;22.8;17.2;10
74434;PMS7003;62867;52.038;29.256;2023-02-28T14:56:19;26.8;20.3;11
74434;PMS7003;62867;52.038;29.256;2023-02-28T15:01:35;27.6;20.2;11.4
74434;PMS7003;62867;52.038;29.256;2023-02-28T15:07:09;30;21.8;12
74434;PMS7003;62867;52.038;29.256;2023-02-28T15:12:07;30.2;24.8;14
74434;PMS7003;62867;52.038;29.256;2023-02-28T15:16:13;27.8;23;12.2
74434;PMS7003;62867;52.038;29.256;2023-02-28T15:21:56;31;24.4;13
74434;PMS7003;62867;52.038;29.256;2023-02-28T15:26:13;36.4;26.8;14
74434;PMS7003;62867;52.038;29.256;2023-02-28T15:31:56;31.6;23.6;13.6
74434;PMS7003;62867;52.038;29.256;2023-02-28T15:37:06;36;28.8;15.8
74434;PMS7003;62867;52.038;29.256;2023-02-28T15:41:22;38.6;30.8;18
74434;PMS7003;62867;52.038;29.256;2023-02-28T15:46:59;34.8;28;15.2
74434;PMS7003;62867;52.038;29.256;2023-02-28T15:51:24;36.2;27;14.6
74434;PMS7003;62867;52.038;29.256;2023-02-28T15:56:54;32.5;26.8;14.5
74434;PMS7003;62867;52.038;29.256;2023-02-28T16:02:14;31.2;26.4;14.6
74434;PMS7003;62867;52.038;29.256;2023-02-28T16:07:00;33.8;26;14.8
74434;PMS7003;62867;52.038;29.256;2023-02-28T16:11:40;30.8;23.8;13.6
74434;PMS7003;62867;52.038;29.256;2023-02-28T16:16:41;32.2;23.6;12.8
74434;PMS7003;62867;52.038;29.256;2023-02-28T16:21:55;37.8;25.8;14.8
74434;PMS7003;62867;52.038;29.256;2023-02-28T16:27:05;36.8;27.2;15
74434;PMS7003;62867;52.038;29.256;2023-02-28T16:31:13;38.6;30.2;16.8
74434;PMS7003;62867;52.038;29.256;2023-02-28T16:36:53;39.4;29;15
74434;PMS7003;62867;52.038;29.256;2023-02-28T16:41:35;37;26.2;14.8
74434;PMS7003;62867;52.038;29.256;2023-02-28T16:46:55;33;24.6;13.4
74434;PMS7003;62867;52.038;29.256;2023-02-28T16:52:05;35;26.2;13.8
74434;PMS7003;62867;52.038;29.256;2023-02-28T16:56:14;29.5;24;13.3
74434;PMS7003;62867;52.038;29.256;2023-02-28T17:01:55;35.8;26.8;14
74434;PMS7003;62867;52.038;29.256;2023-02-28T17:06:37;33.4;25.4;14
74434;PMS7003;62867;52.038;29.256;2023-02-28T17:11:55;35.6;28.4;15.6
74434;PMS7003;62867;52.038;29.256;2023-02-28T17:16:41;35.4;24.8;14
74434;PMS7003;62867;52.038;29.256;2023-02-28T17:21:28;38;26.6;15.2
74434;PMS7003;62867;52.038;29.256;2023-02-28T17:26:41;36.4;26.8;12.8
74434;PMS7003;62867;52.038;29.256;2023-02-28T17:31:51;36.6;27.4;15.2
74434;PMS7003;62867;52.038;29.256;2023-02-28T17:36:51;42.6;34.2;17.6
74434;PMS7003;62867;52.038;29.256;2023-02-28T17:41:41;37;30.6;16.6
74434;PMS7003;62867;52.038;29.256;2023-02-28T17:46:53;35.4;30;16
74434;PMS7003;62867;52.038;29.256;2023-02-28T17:51:27;40.4;28.4;14.8
74434;PMS7003;62867;52.038;29.256;2023-02-28T17:56:51;37;28;14.5
74434;PMS7003;62867;52.038;29.256;2023-02-28T18:02:05;33.6;25.4;13.8
74434;PMS7003;62867;52.038;29.256;2023-02-28T18:06:40;33.4;26;14.6
74434;PMS7003;62867;52.038;29.256;2023-02-28T18:11:25;33.8;26.4;14.2
74434;PMS7003;62867;52.038;29.256;2023-02-28T18:16:41;33.8;24.6;13
74434;PMS7003;62867;52.038;29.256;2023-02-28T18:21:50;39.2;27.8;14
74434;PMS7003;62867;52.038;29.256;2023-02-28T18:27:05;34.2;25;14.2
74434;PMS7003;62867;52.038;29.256;2023-02-28T18:31:43;32.4;28.4;15.2
74434;PMS7003;62867;52.038;29.256;2023-02-28T18:36:13;39.8;28.8;15.6
74434;PMS7003;62867;52.038;29.256;2023-02-28T18:41:13;32.4;26.6;14.2
74434;PMS7003;62867;52.038;29.256;2023-02-28T18:46:51;33.6;26.4;14.4
74434;PMS7003;62867;52.038;29.256;2023-02-28T18:52:07;36.4;27.8;15
74434;PMS7003;62867;52.038;29.256;2023-02-28T18:56:41;27.3;22.5;13
74434;PMS7003;62867;52.038;29.256;2023-02-28T19:01:26;32.8;24.8;13.2
74434;PMS7003;62867;52.038;29.256;2023-02-28T19:06:27;35.2;25.6;13.8
74434;PMS7003;62867;52.038;29.256;2023-02-28T19:11:51;37.8;27.6;13.8
74434;PMS7003;62867;52.038;29.256;2023-02-28T19:17:07;31.6;24.2;12.6
74434;PMS7003;62867;52.038;29.256;2023-02-28T19:21:28;35.6;25.6;14.6
74434;PMS7003;62867;52.038;29.256;2023-02-28T19:26:39;32;26.2;14
74434;PMS7003;62867;52.038;29.256;2023-02-28T19:31:41;31;23.4;12.2
74434;PMS7003;62867;52.038;29.256;2023-02-28T19:36:51;35.6;25.6;13.8
74434;PMS7003;62867;52.038;29.256;2023-02-28T19:42:07;39.2;25.8;13.8
74434;PMS7003;62867;52.038;29.256;2023-02-28T19:46:13;31;25;13
74434;PMS7003;62867;52.038;29.256;2023-02-28T19:51:28;43.6;29.4;16.6
74434;PMS7003;62867;52.038;29.256;2023-02-28T19:56:53;43.2;30.6;16.8
74434;PMS7003;62867;52.038;29.256;2023-02-28T20:01:49;43;27.5;15.5
74434;PMS7003;62867;52.038;29.256;2023-02-28T20:07:07;40.4;28.6;15
74434;PMS7003;62867;52.038;29.256;2023-02-28T20:11:41;32.6;25.4;13.6
74434;PMS7003;62867;52.038;29.256;2023-02-28T20:16:27;32.2;25.6;13.8
74434;PMS7003;62867;52.038;29.256;2023-02-28T20:21:39;33.8;25;13.6
74434;PMS7003;62867;52.038;29.256;2023-02-28T20:26:27;31.6;24.2;14.2
74434;PMS7003;62867;52.038;29.256;2023-02-28T20:32:07;30.6;21.6;12.8
74434;PMS7003;62867;52.038;29.256;2023-02-28T20:36:13;31.6;23.6;13.4
74434;PMS7003;62867;52.038;29.256;2023-02-28T20:41:13;27.4;22;13.2
74434;PMS7003;62867;52.038;29.256;2023-02-28T20:46:41;32.8;25.2;13.2
74434;PMS7003;62867;52.038;29.256;2023-02-28T20:51:51;32;24;13.6
74434;PMS7003;62867;52.038;29.256;2023-02-28T20:57:05;28.4;22.4;11.6
74434;PMS7003;62867;52.038;29.256;2023-02-28T21:01:41;29;22.8;12.3
74434;PMS7003;62867;52.038;29.256;2023-02-28T21:06:13;30.6;22.8;12.6
74434;PMS7003;62867;52.038;29.256;2023-02-28T21:11:39;33.2;23.8;12.6
74434;PMS7003;62867;52.038;29.256;2023-02-28T21:16:37;31.8;24.4;12.6
74434;PMS7003;62867;52.038;29.256;2023-02-28T21:22:07;29.2;20.8;11.4
74434;PMS7003;62867;52.038;29.256;2023-02-28T21:26:51;24.6;18.2;11
74434;PMS7003;62867;52.038;29.256;2023-02-28T21:31:28;26.8;20.6;11.4
74434;PMS7003;62867;52.038;29.256;2023-02-28T21:36:40;30.8;21.6;11
74434;PMS7003;62867;52.038;29.256;2023-02-28T21:41:37;24.6;19;10.4
74434;PMS7003;62867;52.038;29.256;2023-02-28T21:47:05;24.4;17;9.8
74434;PMS7003;62867;52.038;29.256;2023-02-28T21:51:39;23.6;17.6;9.4
74434;PMS7003;62867;52.038;29.256;2023-02-28T21:56:28;25;18.8;10.4
74434;PMS7003;62867;52.038;29.256;2023-02-28T22:01:14;24.3;19.3;9.3
74434;PMS7003;62867;52.038;29.256;2023-02-28T22:06:52;25.6;18.6;10.2
74434;PMS7003;62867;52.038;29.256;2023-02-28T22:12:07;26.6;18.8;10.8
74434;PMS7003;62867;52.038;29.256;2023-02-28T22:16:49;25.4;19.2;10.2
74434;PMS7003;62867;52.038;29.256;2023-02-28T22:21:27;29.6;18.6;9.8
74434;PMS7003;62867;52.038;29.256;2023-02-28T22:26:41;23.6;19;10.4
74434;PMS7003;62867;52.038;29.256;2023-02-28T22:31:51;25.6;18.8;10.6
74434;PMS7003;62867;52.038;29.256;2023-02-28T22:37:07;24.2;17.6;9.6
74434;PMS7003;62867;52.038;29.256;2023-02-28T22:41:49;27.6;18.8;9.4
74434;PMS7003;62867;52.038;29.256;2023-02-28T22:46:13;26.8;20;10.4
74434;PMS7003;62867;52.038;29.256;2023-02-28T22:51:41;30;20.6;10.8
74434;PMS7003;62867;52.038;29.256;2023-02-28T22:56:49;23.8;17.4;9.6
74434;PMS7003;62867;52.038;29.256;2023-02-28T23:02:07;28;22;10.8
74434;PMS7003;62867;52.038;29.256;2023-02-28T23:06:42;26.2;18.8;10
74434;PMS7003;62867;52.038;29.256;2023-02-28T23:11:28;25;19.2;11.2
74434;PMS7003;62867;52.038;29.256;2023-02-28T23:16:52;26.8;19.4;11
74434;PMS7003;62867;52.038;29.256;2023-02-28T23:21:37;26.2;19.6;11
74434;PMS7003;62867;52.038;29.256;2023-02-28T23:27:04;27.4;18.4;10
74434;PMS7003;62867;52.038;29.256;2023-02-28T23:32:01;30;21.6;12
74434;PMS7003;62867;52.038;29.256;2023-02-28T23:36:14;25.2;20;10.8
74434;PMS7003;62867;52.038;29.256;2023-02-28T23:41:47;25.8;18.8;11
74434;PMS7003;62867;52.038;29.256;2023-02-28T23:46:50;24.2;19.4;10.2
74434;PMS7003;62867;52.038;29.256;2023-02-28T23:52:03;24.4;18.2;10
74434;PMS7003;62867;52.038;29.256;2023-02-28T23:56:47;25;18.4;10.2
